Trout Creek, Canada
Current Conditions -  °F | °C
As of 5:00 PM on Monday 20 Oct 2014 (Local Time) from CYYB Reporting Station
Rain Showers Rain Showers  
Wind Chill: 35°   Ceiling: 200
Heat Index: 41°   Visibility: 1mi
Dew Point: 41°   Wind: 9mph
Humidity: 100%   Direction: 100°E
Pressure: 29.76"   Gusts: NA
Location:  45.98°N, 79.37°W
Report Text: CYYB 202100Z 10008KT 1SM R08/P6000FT/N -SHRA BR OVC002 05/05 A2976 RMK SF8 CIG RAG CU EMBD SLP092
Loading
Personal Weather Stations






























Interactive Weather Map
Tropical Storm Tracking
New forecast layout! Learn more

10-Day Weather Forecast

Advertisements
Track Severe Weather on mobile